Bauang Weathercam more information Bauang Weathercam


Thunder radar more information blitzortung!


Rain radar more information rain snow radar


Visit other webcamsites:

Youtube



Nearby METAR Reports

   
RPLC - Angeles/Pampanga, Philippines
Distance from station: S 165 km
Updated: 29-05-2022 04:00
Mostly Cloudy  
Mostly Cloudy  
   Wind: WSW 1 m/s
Wind: WSW 1 m/s
Temperature: 27°C
Heat Index: 29°C
Dew Point: 22°C
Humidity: 74%
Barometer: 1009 hPa
Clouds: Mostly Cloudy
Visibility: 8 km
Cloud details: Few Clouds 609.6 m,
Mostly Cloudy 9144 m
RPLC 282000Z 25002KT 8000 FEW020 BKN300 27/22 Q1009 NOSIG RMK A2980
RPLI - Laoag Intl(Ph-Ar, Philippines
Distance from station: N 172 km
Updated: 29-05-2022 02:00
NOT Current
Thunderstorm, Mostly Cloudy  
Thunderstorm, Mostly Cloudy  
   Wind: East 1.5 m/s
Wind: East 1.5 m/s
Temperature: 26°C
Dew Point: 25°C
Humidity: 94%
Barometer: 1008 hPa
Clouds: Mostly Cloudy
Visibility: More than 10 km
Cloud details: Few Clouds 518.2 m,
Few Clouds 548.6 m,
Mostly Cloudy 2743.2 m
RPLI 281800Z 10003KT 9999 TS FEW017CB FEW018 BKN090 26/25 Q1008 RMK A2977 CB WNW
RPLB - Olongapo/Subic, Philippines
Distance from station: S 203 km
Updated: 29-05-2022 04:00
Partly Cloudy  
Partly Cloudy  
   Wind: Calm
Wind: Calm
Temperature: 25°C
Dew Point: 23°C
Humidity: 89%
Barometer: 1009 hPa
Clouds: Partly Cloudy
Visibility: More than 10 km
Cloud details: Few Clouds 609.6 m,
Partly Cloudy 2438.4 m
RPLB 282000Z 00000KT 9999 FEW020 SCT080 25/23 Q1009 NOSIG RMK A2980
RPLL - Ninoy Aquino Int, Philippines
Distance from station: SSE 246 km
Updated: 29-05-2022 04:00
Few Clouds  
Few Clouds  
   Wind: varies 1 m/s
Wind: varies 1 m/s
Temperature: 26°C
Dew Point: 25°C
Humidity: 94%
Barometer: 1008 hPa
Clouds: Few Clouds
Visibility: 9 km
Cloud details: Few Clouds 762 m
RPLL 282000Z VRB02KT 9000 FEW025 26/25 Q1008 NOSIG RMK A2977
RPMR - Romblon/Tablas I, Philippines
Distance from station: SSE 498 km
Updated: 28-05-2022 17:00
NOT Current
Showers, Rain, Overcast  
Showers, Rain, Overcast  
   Wind: NE 1.5 m/s
Wind: NE 1.5 m/s
Temperature: 28°C
Heat Index: 31°C
Dew Point: 22°C
Humidity: 70%
Barometer: 1009 hPa
Clouds: Overcast
Visibility: More than 10 km
Cloud details: Partly Cloudy 548.6 m,
Overcast 2438.4 m
RPMR 280900Z 05003KT 9999 SHRA SCT018 OVC080 28/22 Q1009 RMK A2980
RPVP - Puerto Princesa, Philippines
Distance from station: SSW 778 km
Updated: 29-05-2022 02:00
NOT Current
Mostly Cloudy  
Mostly Cloudy  
   Wind: West 2.1 m/s
Wind: West 2.1 m/s
Temperature: 25°C
Dew Point: 23°C
Humidity: 89%
Barometer: 1009 hPa
Clouds: Mostly Cloudy
Visibility: More than 10 km
Cloud details: Few Clouds 579.1 m,
Mostly Cloudy 2438.4 m
RPVP 281800Z 27004KT 9999 FEW019 BKN080 25/23 Q1009 RMK A2980
RPVM - Mactan-Cebu, Philippines
Distance from station: SSE 800 km
Updated: 29-05-2022 04:00
Light Rain, Overcast  
Light Rain, Overcast  
   Wind: North 2.6 m/s
Wind: North 2.6 m/s
Temperature: 26°C
Dew Point: 24°C
Humidity: 89%
Barometer: 1010 hPa
Clouds: Overcast
Visibility: 9 km
Cloud details: Few Clouds 609.6 m,
Overcast 2743.2 m
RPVM 282000Z 35005KT 9000 -RA FEW020 OVC090 26/24 Q1010 RMK A2983
RPMZ - Zamboanga (civ/A, Philippines
Distance from station: S 1090 km
Updated: 29-05-2022 02:00
NOT Current
Overcast  
Overcast  
   Wind: Calm
Wind: Calm
Temperature: 25°C
Dew Point: 24°C
Humidity: 94%
Barometer: 1009 hPa
Clouds: Overcast
Visibility: More than 10 km
Cloud details: Few Clouds 518.2 m,
Overcast 2743.2 m
RPMZ 281800Z 00000KT 9999 FEW017 OVC090 25/24 Q1009 RMK A2980
RPMD - Davao/Francisco, Philippines
Distance from station: SSE 1198 km
Updated: 29-05-2022 04:00
Few Clouds  
Few Clouds  
   Wind: NNW 2.6 m/s
Wind: NNW 2.6 m/s
Temperature: 25°C
Dew Point: 23°C
Humidity: 89%
Barometer: 1009 hPa
Clouds: Few Clouds
Visibility: More than 10 km
Cloud details: Few Clouds 487.7 m
RPMD 282000Z 34005KT 310V010 9999 FEW016 25/23 Q1009 RMK A2980

Script developed by  Saratoga-weather.org Adapted for the template by  Weerstation Leuven

You find our weather info also at:

Ambient Weather

WeatherCloud

Philippine Atmospheric, Geophysical and Astronomical Services Administration